sensor_id;sensor_type;location;lat;lon;timestamp;pressure;altitude;pressure_sealevel;temperature;humidity
76637;BME280;65532;52.124;5.480;2023-07-16T00:02:01;100758.69;;;16.77;70.21
76637;BME280;65532;52.124;5.480;2023-07-16T00:04:28;100761.13;;;16.84;69.87
76637;BME280;65532;52.124;5.480;2023-07-16T00:06:54;100757.56;;;16.88;69.12
76637;BME280;65532;52.124;5.480;2023-07-16T00:09:21;100767.44;;;16.94;68.55
76637;BME280;65532;52.124;5.480;2023-07-16T00:11:47;100767.44;;;16.94;68.55
76637;BME280;65532;52.124;5.480;2023-07-16T00:14:14;100764.97;;;16.93;68.60
76637;BME280;65532;52.124;5.480;2023-07-16T00:16:40;100761.97;;;16.89;68.14
76637;BME280;65532;52.124;5.480;2023-07-16T00:19:10;100760.31;;;16.93;67.62
76637;BME280;65532;52.124;5.480;2023-07-16T00:21:37;100766.34;;;16.95;67.38
76637;BME280;65532;52.124;5.480;2023-07-16T00:24:04;100766.06;;;16.97;67.01
76637;BME280;65532;52.124;5.480;2023-07-16T00:26:31;100762.22;;;16.98;67.09
76637;BME280;65532;52.124;5.480;2023-07-16T00:28:57;100758.69;;;16.92;67.31
76637;BME280;65532;52.124;5.480;2023-07-16T00:31:24;100760.31;;;16.88;67.41
76637;BME280;65532;52.124;5.480;2023-07-16T00:33:51;100772.63;;;16.86;67.40
76637;BME280;65532;52.124;5.480;2023-07-16T00:36:17;100768.25;;;16.80;67.67
76637;BME280;65532;52.124;5.480;2023-07-16T00:38:44;100765.81;;;16.78;67.71
76637;BME280;65532;52.124;5.480;2023-07-16T00:41:15;100771.00;;;16.74;67.93
76637;BME280;65532;52.124;5.480;2023-07-16T00:43:41;100766.88;;;16.72;67.98
76637;BME280;65532;52.124;5.480;2023-07-16T00:46:08;100780.00;;;16.70;68.00
76637;BME280;65532;52.124;5.480;2023-07-16T00:48:35;100774.25;;;16.66;68.36
76637;BME280;65532;52.124;5.480;2023-07-16T00:51:02;100791.19;;;16.63;68.39
76637;BME280;65532;52.124;5.480;2023-07-16T00:53:30;100776.97;;;16.61;68.40
76637;BME280;65532;52.124;5.480;2023-07-16T00:55:56;100782.72;;;16.60;68.48
76637;BME280;65532;52.124;5.480;2023-07-16T00:58:23;100781.38;;;16.57;68.71
76637;BME280;65532;52.124;5.480;2023-07-16T01:00:50;100789.00;;;16.55;68.70
76637;BME280;65532;52.124;5.480;2023-07-16T01:03:16;100787.06;;;16.51;68.84
76637;BME280;65532;52.124;5.480;2023-07-16T01:05:57;100785.44;;;16.50;68.90
76637;BME280;65532;52.124;5.480;2023-07-16T01:08:32;100780.81;;;16.45;69.32
76637;BME280;65532;52.124;5.480;2023-07-16T01:10:59;100783.81;;;16.43;69.33
76637;BME280;65532;52.124;5.480;2023-07-16T01:13:27;100782.97;;;16.43;69.30
76637;BME280;65532;52.124;5.480;2023-07-16T01:15:54;100779.69;;;16.46;69.45
76637;BME280;65532;52.124;5.480;2023-07-16T01:18:21;100773.69;;;16.49;69.37
76637;BME280;65532;52.124;5.480;2023-07-16T01:20:47;100786.53;;;16.48;69.32
76637;BME280;65532;52.124;5.480;2023-07-16T01:31:22;100775.59;;;16.43;69.55
76637;BME280;65532;52.124;5.480;2023-07-16T01:33:51;100771.78;;;16.44;69.58
76637;BME280;65532;52.124;5.480;2023-07-16T01:36:19;100776.16;;;16.45;69.69
76637;BME280;65532;52.124;5.480;2023-07-16T01:38:46;100769.31;;;16.43;69.69
76637;BME280;65532;52.124;5.480;2023-07-16T01:41:13;100763.56;;;16.39;69.99
76637;BME280;65532;52.124;5.480;2023-07-16T01:43:40;100772.31;;;16.41;69.79
76637;BME280;65532;52.124;5.480;2023-07-16T01:46:06;100774.50;;;16.44;69.85
76637;BME280;65532;52.124;5.480;2023-07-16T01:48:35;100771.75;;;16.39;70.04
76637;BME280;65532;52.124;5.480;2023-07-16T01:51:03;100774.50;;;16.39;70.25
76637;BME280;65532;52.124;5.480;2023-07-16T01:53:30;100780.22;;;16.38;70.14
76637;BME280;65532;52.124;5.480;2023-07-16T01:55:57;100780.50;;;16.36;70.31
76637;BME280;65532;52.124;5.480;2023-07-16T01:58:25;100777.22;;;16.34;70.58
76637;BME280;65532;52.124;5.480;2023-07-16T02:00:51;100778.59;;;16.32;70.49
76637;BME280;65532;52.124;5.480;2023-07-16T02:03:18;100767.94;;;16.30;70.88
76637;BME280;65532;52.124;5.480;2023-07-16T02:05:45;100781.88;;;16.29;71.12
76637;BME280;65532;52.124;5.480;2023-07-16T02:08:12;100773.94;;;16.27;71.15
76637;BME280;65532;52.124;5.480;2023-07-16T02:10:38;100781.56;;;16.25;71.41
76637;BME280;65532;52.124;5.480;2023-07-16T02:13:05;100775.03;;;16.26;71.49
76637;BME280;65532;52.124;5.480;2023-07-16T02:15:32;100775.03;;;16.26;71.83
76637;BME280;65532;52.124;5.480;2023-07-16T02:17:58;100769.56;;;16.26;71.90
76637;BME280;65532;52.124;5.480;2023-07-16T02:20:25;100782.41;;;16.26;71.80
76637;BME280;65532;52.124;5.480;2023-07-16T02:22:51;100780.47;;;16.21;72.16
76637;BME280;65532;52.124;5.480;2023-07-16T02:25:18;100777.75;;;16.21;72.25
76637;BME280;65532;52.124;5.480;2023-07-16T02:27:46;100770.91;;;16.18;72.62
76637;BME280;65532;52.124;5.480;2023-07-16T02:30:16;100777.75;;;16.21;72.57
76637;BME280;65532;52.124;5.480;2023-07-16T02:32:43;100777.75;;;16.21;72.77
76637;BME280;65532;52.124;5.480;2023-07-16T02:35:10;100788.13;;;16.19;72.80
76637;BME280;65532;52.124;5.480;2023-07-16T02:37:37;100785.38;;;16.19;73.04
76637;BME280;65532;52.124;5.480;2023-07-16T02:40:05;100784.56;;;16.18;73.05
76637;BME280;65532;52.124;5.480;2023-07-16T02:42:33;100787.56;;;16.17;73.08
76637;BME280;65532;52.124;5.480;2023-07-16T02:44:59;100781.84;;;16.18;73.43
76637;BME280;65532;52.124;5.480;2023-07-16T02:47:26;100772.81;;;16.18;73.42
76637;BME280;65532;52.124;5.480;2023-07-16T02:49:52;100778.84;;;16.20;73.48
76637;BME280;65532;52.124;5.480;2023-07-16T02:52:19;100784.03;;;16.22;73.67
76637;BME280;65532;52.124;5.480;2023-07-16T02:54:45;100783.47;;;16.25;73.52
76637;BME280;65532;52.124;5.480;2023-07-16T02:57:12;100790.34;;;16.27;73.82
76637;BME280;65532;52.124;5.480;2023-07-16T02:59:39;100789.75;;;16.25;73.80
76637;BME280;65532;52.124;5.480;2023-07-16T03:02:05;100788.66;;;16.21;74.02
76637;BME280;65532;52.124;5.480;2023-07-16T03:04:32;100787.56;;;16.17;73.83
76637;BME280;65532;52.124;5.480;2023-07-16T03:06:58;100790.03;;;16.13;73.77
76637;BME280;65532;52.124;5.480;2023-07-16T03:09:25;100785.91;;;16.06;74.24
76637;BME280;65532;52.124;5.480;2023-07-16T03:11:51;100791.91;;;16.03;74.49
76637;BME280;65532;52.124;5.480;2023-07-16T03:14:18;100796.28;;;15.99;74.82
76637;BME280;65532;52.124;5.480;2023-07-16T03:16:45;100793.50;;;15.94;75.04
76637;BME280;65532;52.124;5.480;2023-07-16T03:19:11;100796.78;;;15.91;75.12
76637;BME280;65532;52.124;5.480;2023-07-16T03:21:38;100796.22;;;15.88;75.31
76637;BME280;65532;52.124;5.480;2023-07-16T03:24:04;100803.31;;;15.90;75.26
76637;BME280;65532;52.124;5.480;2023-07-16T03:26:31;100806.59;;;15.86;75.32
76637;BME280;65532;52.124;5.480;2023-07-16T03:28:59;100803.88;;;15.86;75.50
76637;BME280;65532;52.124;5.480;2023-07-16T03:31:27;100798.41;;;15.86;75.31
76637;BME280;65532;52.124;5.480;2023-07-16T03:33:53;100799.75;;;15.84;75.98
76637;BME280;65532;52.124;5.480;2023-07-16T03:36:22;100792.94;;;15.81;75.93
76637;BME280;65532;52.124;5.480;2023-07-16T03:38:49;100807.13;;;15.78;76.05
76637;BME280;65532;52.124;5.480;2023-07-16T03:41:16;100798.34;;;15.76;76.31
76637;BME280;65532;52.124;5.480;2023-07-16T03:43:44;100809.53;;;15.75;76.50
76637;BME280;65532;52.124;5.480;2023-07-16T03:46:16;100802.16;;;15.75;76.24
76637;BME280;65532;52.124;5.480;2023-07-16T03:48:44;100812.53;;;15.73;76.79
76637;BME280;65532;52.124;5.480;2023-07-16T03:51:11;100811.44;;;15.74;77.08
76637;BME280;65532;52.124;5.480;2023-07-16T03:53:38;100831.69;;;15.78;77.05
76637;BME280;65532;52.124;5.480;2023-07-16T03:56:04;100817.50;;;15.81;76.77
76637;BME280;65532;52.124;5.480;2023-07-16T03:58:31;100819.72;;;15.90;76.71
76637;BME280;65532;52.124;5.480;2023-07-16T04:01:01;100824.06;;;15.91;76.32
76637;BME280;65532;52.124;5.480;2023-07-16T04:03:27;100841.59;;;15.95;76.16
76637;BME280;65532;52.124;5.480;2023-07-16T04:06:05;100840.50;;;15.96;75.75
76637;BME280;65532;52.124;5.480;2023-07-16T04:08:32;100845.97;;;15.96;76.05
76637;BME280;65532;52.124;5.480;2023-07-16T04:10:58;100836.69;;;16.02;75.79
76637;BME280;65532;52.124;5.480;2023-07-16T04:13:25;100835.06;;;16.06;75.29
76637;BME280;65532;52.124;5.480;2023-07-16T04:15:51;100831.50;;;16.00;75.48
76637;BME280;65532;52.124;5.480;2023-07-16T04:18:20;100845.44;;;15.99;75.51
76637;BME280;65532;52.124;5.480;2023-07-16T04:20:47;100839.69;;;16.00;75.55
76637;BME280;65532;52.124;5.480;2023-07-16T04:23:13;100843.78;;;15.98;75.61
76637;BME280;65532;52.124;5.480;2023-07-16T04:25:40;100850.06;;;15.98;75.61
76637;BME280;65532;52.124;5.480;2023-07-16T04:28:07;100857.16;;;15.99;75.27
76637;BME280;65532;52.124;5.480;2023-07-16T04:30:33;100855.81;;;16.02;75.29
76637;BME280;65532;52.124;5.480;2023-07-16T04:33:00;100857.44;;;16.03;74.84
76637;BME280;65532;52.124;5.480;2023-07-16T04:35:27;100873.56;;;16.04;74.88
76637;BME280;65532;52.124;5.480;2023-07-16T04:37:53;100870.03;;;16.04;74.59
76637;BME280;65532;52.124;5.480;2023-07-16T04:40:20;100868.38;;;16.08;74.56
76637;BME280;65532;52.124;5.480;2023-07-16T04:42:46;100865.66;;;16.08;75.12
76637;BME280;65532;52.124;5.480;2023-07-16T04:45:13;100873.59;;;16.09;74.59
76637;BME280;65532;52.124;5.480;2023-07-16T04:47:40;100874.44;;;16.10;74.49
76637;BME280;65532;52.124;5.480;2023-07-16T04:50:06;100877.72;;;16.12;74.40
76637;BME280;65532;52.124;5.480;2023-07-16T04:52:33;100880.44;;;16.12;74.22
76637;BME280;65532;52.124;5.480;2023-07-16T04:55:00;100885.63;;;16.13;74.06
76637;BME280;65532;52.124;5.480;2023-07-16T04:57:26;100882.63;;;16.15;73.86
76637;BME280;65532;52.124;5.480;2023-07-16T04:59:53;100889.75;;;16.16;73.91
76637;BME280;65532;52.124;5.480;2023-07-16T05:02:20;100879.38;;;16.18;73.36
76637;BME280;65532;52.124;5.480;2023-07-16T05:04:47;100882.38;;;16.22;73.36
76637;BME280;65532;52.124;5.480;2023-07-16T05:07:14;100877.19;;;16.25;73.30
76637;BME280;65532;52.124;5.480;2023-07-16T05:09:42;100887.59;;;16.28;72.85
76637;BME280;65532;52.124;5.480;2023-07-16T05:12:09;100884.34;;;16.31;73.03
76637;BME280;65532;52.124;5.480;2023-07-16T05:14:44;100892.00;;;16.34;72.75
76637;BME280;65532;52.124;5.480;2023-07-16T05:17:12;100889.25;;;16.39;72.31
76637;BME280;65532;52.124;5.480;2023-07-16T05:19:39;100885.75;;;16.54;72.19
76637;BME280;65532;52.124;5.480;2023-07-16T05:22:08;100886.41;;;17.02;70.58
76637;BME280;65532;52.124;5.480;2023-07-16T05:24:35;100880.09;;;17.52;69.78
76637;BME280;65532;52.124;5.480;2023-07-16T05:27:01;100885.78;;;19.29;66.11
76637;BME280;65532;52.124;5.480;2023-07-16T05:29:28;100881.69;;;20.89;60.07
76637;BME280;65532;52.124;5.480;2023-07-16T05:31:54;100891.16;;;21.94;56.30
76637;BME280;65532;52.124;5.480;2023-07-16T05:34:21;100891.94;;;22.36;53.86
76637;BME280;65532;52.124;5.480;2023-07-16T05:36:48;100889.91;;;22.91;51.45
76637;BME280;65532;52.124;5.480;2023-07-16T05:39:14;100900.88;;;22.83;51.34
76637;BME280;65532;52.124;5.480;2023-07-16T05:41:41;100911.38;;;22.94;50.64
76637;BME280;65532;52.124;5.480;2023-07-16T05:44:08;100911.84;;;23.19;49.09
76637;BME280;65532;52.124;5.480;2023-07-16T05:46:35;100918.09;;;23.24;49.72
76637;BME280;65532;52.124;5.480;2023-07-16T05:49:01;100921.19;;;23.76;48.29
76637;BME280;65532;52.124;5.480;2023-07-16T05:51:28;100923.44;;;24.05;46.80
76637;BME280;65532;52.124;5.480;2023-07-16T05:53:55;100937.34;;;23.83;47.39
76637;BME280;65532;52.124;5.480;2023-07-16T05:56:21;100932.91;;;23.73;47.79
76637;BME280;65532;52.124;5.480;2023-07-16T05:58:48;100937.75;;;24.07;46.83
76637;BME280;65532;52.124;5.480;2023-07-16T06:01:14;100940.53;;;24.07;46.41
76637;BME280;65532;52.124;5.480;2023-07-16T06:03:41;100944.78;;;23.74;46.49
76637;BME280;65532;52.124;5.480;2023-07-16T06:06:10;100932.38;;;23.49;47.13
76637;BME280;65532;52.124;5.480;2023-07-16T06:08:37;100936.44;;;23.43;47.25
76637;BME280;65532;52.124;5.480;2023-07-16T06:11:03;100946.59;;;23.56;46.99
76637;BME280;65532;52.124;5.480;2023-07-16T06:13:30;100941.75;;;23.17;47.73
76637;BME280;65532;52.124;5.480;2023-07-16T06:15:57;100949.81;;;23.27;47.24
76637;BME280;65532;52.124;5.480;2023-07-16T06:18:23;100949.94;;;23.44;47.52
76637;BME280;65532;52.124;5.480;2023-07-16T06:20:50;100951.56;;;23.23;46.66
76637;BME280;65532;52.124;5.480;2023-07-16T06:23:18;100952.56;;;23.05;47.69
76637;BME280;65532;52.124;5.480;2023-07-16T06:25:45;100950.13;;;23.25;47.82
76637;BME280;65532;52.124;5.480;2023-07-16T06:28:14;100955.19;;;23.32;47.21
76637;BME280;65532;52.124;5.480;2023-07-16T06:30:40;100950.34;;;22.93;47.91
76637;BME280;65532;52.124;5.480;2023-07-16T06:33:07;100959.03;;;22.86;47.97
76637;BME280;65532;52.124;5.480;2023-07-16T06:35:33;100953.47;;;23.00;48.39
76637;BME280;65532;52.124;5.480;2023-07-16T06:38:00;100959.00;;;23.36;47.89
76637;BME280;65532;52.124;5.480;2023-07-16T06:40:28;100966.84;;;23.20;47.31
76637;BME280;65532;52.124;5.480;2023-07-16T06:42:55;100955.13;;;23.01;48.32
76637;BME280;65532;52.124;5.480;2023-07-16T06:45:22;100973.81;;;23.40;47.74
76637;BME280;65532;52.124;5.480;2023-07-16T06:47:48;100973.88;;;23.26;47.30
76637;BME280;65532;52.124;5.480;2023-07-16T06:50:15;100967.25;;;23.14;47.42
76637;BME280;65532;52.124;5.480;2023-07-16T06:52:42;100965.34;;;23.00;48.12
76637;BME280;65532;52.124;5.480;2023-07-16T06:55:09;100959.00;;;23.00;48.39
76637;BME280;65532;52.124;5.480;2023-07-16T06:57:35;100961.25;;;22.98;48.40
76637;BME280;65532;52.124;5.480;2023-07-16T07:00:02;100961.25;;;22.98;48.24
76637;BME280;65532;52.124;5.480;2023-07-16T07:02:29;100966.88;;;23.07;48.61
76637;BME280;65532;52.124;5.480;2023-07-16T07:04:55;100983.38;;;22.84;48.68
76637;BME280;65532;52.124;5.480;2023-07-16T07:07:22;100977.34;;;22.96;48.50
76637;BME280;65532;52.124;5.480;2023-07-16T07:09:48;100974.53;;;23.10;48.23
76637;BME280;65532;52.124;5.480;2023-07-16T07:12:15;100978.03;;;23.01;48.32
76637;BME280;65532;52.124;5.480;2023-07-16T07:14:42;100984.25;;;22.44;49.26
76637;BME280;65532;52.124;5.480;2023-07-16T07:17:08;100988.91;;;21.69;50.85
76637;BME280;65532;52.124;5.480;2023-07-16T07:19:35;100995.97;;;21.24;52.38
76637;BME280;65532;52.124;5.480;2023-07-16T07:22:01;101004.66;;;20.93;53.44
76637;BME280;65532;52.124;5.480;2023-07-16T07:24:28;101006.66;;;20.69;54.19
76637;BME280;65532;52.124;5.480;2023-07-16T07:26:55;101001.81;;;20.32;55.12
76637;BME280;65532;52.124;5.480;2023-07-16T07:29:21;101013.66;;;20.03;56.09
76637;BME280;65532;52.124;5.480;2023-07-16T07:31:48;101022.03;;;19.93;56.80
76637;BME280;65532;52.124;5.480;2023-07-16T07:34:14;101017.69;;;19.87;56.95
76637;BME280;65532;52.124;5.480;2023-07-16T07:36:41;101016.16;;;19.76;57.30
76637;BME280;65532;52.124;5.480;2023-07-16T07:39:07;101024.00;;;19.88;57.75
76637;BME280;65532;52.124;5.480;2023-07-16T07:41:34;101024.97;;;20.02;58.25
76637;BME280;65532;52.124;5.480;2023-07-16T07:44:00;101026.38;;;19.99;57.66
76637;BME280;65532;52.124;5.480;2023-07-16T07:46:27;101018.41;;;19.98;58.01
76637;BME280;65532;52.124;5.480;2023-07-16T07:48:53;101025.91;;;20.16;58.07
76637;BME280;65532;52.124;5.480;2023-07-16T07:51:20;101021.75;;;19.95;58.58
76637;BME280;65532;52.124;5.480;2023-07-16T07:53:47;101025.16;;;19.82;58.68
76637;BME280;65532;52.124;5.480;2023-07-16T07:56:15;101027.13;;;19.76;58.58
76637;BME280;65532;52.124;5.480;2023-07-16T07:58:42;101032.50;;;19.52;59.03
76637;BME280;65532;52.124;5.480;2023-07-16T08:01:08;101035.88;;;19.44;59.88
76637;BME280;65532;52.124;5.480;2023-07-16T08:03:35;101050.19;;;19.41;59.91
76637;BME280;65532;52.124;5.480;2023-07-16T08:06:02;101041.09;;;19.40;60.69
76637;BME280;65532;52.124;5.480;2023-07-16T08:08:28;101044.41;;;19.37;60.58
76637;BME280;65532;52.124;5.480;2023-07-16T08:10:55;101042.25;;;19.34;60.75
76637;BME280;65532;52.124;5.480;2023-07-16T08:13:22;101047.09;;;19.48;61.21
76637;BME280;65532;52.124;5.480;2023-07-16T08:15:48;101048.72;;;19.59;60.65
76637;BME280;65532;52.124;5.480;2023-07-16T08:18:15;101055.72;;;19.75;60.96
76637;BME280;65532;52.124;5.480;2023-07-16T08:20:41;101049.19;;;19.66;60.74
76637;BME280;65532;52.124;5.480;2023-07-16T08:23:08;101056.69;;;19.50;60.44
76637;BME280;65532;52.124;5.480;2023-07-16T08:25:35;101052.66;;;19.42;60.55
76637;BME280;65532;52.124;5.480;2023-07-16T08:28:04;101048.31;;;19.31;61.09
76637;BME280;65532;52.124;5.480;2023-07-16T08:30:32;101055.22;;;19.29;61.70
76637;BME280;65532;52.124;5.480;2023-07-16T08:32:59;101063.34;;;19.39;61.18
76637;BME280;65532;52.124;5.480;2023-07-16T08:35:26;101058.66;;;19.44;61.07
76637;BME280;65532;52.124;5.480;2023-07-16T08:37:53;101059.25;;;19.41;61.60
76637;BME280;65532;52.124;5.480;2023-07-16T08:40:19;101056.75;;;19.40;61.51
76637;BME280;65532;52.124;5.480;2023-07-16T08:42:48;101067.22;;;19.38;61.67
76637;BME280;65532;52.124;5.480;2023-07-16T08:45:15;101066.19;;;19.29;62.29
76637;BME280;65532;52.124;5.480;2023-07-16T08:47:48;101083.22;;;19.26;62.50
76637;BME280;65532;52.124;5.480;2023-07-16T08:50:16;101085.16;;;19.20;63.07
76637;BME280;65532;52.124;5.480;2023-07-16T08:52:44;101085.75;;;19.17;63.46
76637;BME280;65532;52.124;5.480;2023-07-16T08:55:10;101083.84;;;19.07;63.22
76637;BME280;65532;52.124;5.480;2023-07-16T08:57:40;101083.88;;;19.02;63.61
76637;BME280;65532;52.124;5.480;2023-07-16T09:00:07;101085.53;;;19.03;63.75
76637;BME280;65532;52.124;5.480;2023-07-16T09:02:34;101098.16;;;19.09;63.75
76637;BME280;65532;52.124;5.480;2023-07-16T09:05:01;101091.75;;;19.19;63.84
76637;BME280;65532;52.124;5.480;2023-07-16T09:07:28;101087.00;;;19.35;63.60
76637;BME280;65532;52.124;5.480;2023-07-16T09:09:58;101096.00;;;19.45;63.20
76637;BME280;65532;52.124;5.480;2023-07-16T09:12:26;101090.47;;;19.51;63.08
76637;BME280;65532;52.124;5.480;2023-07-16T09:14:53;101112.84;;;19.78;63.26
76637;BME280;65532;52.124;5.480;2023-07-16T09:17:24;101104.97;;;20.00;62.34
76637;BME280;65532;52.124;5.480;2023-07-16T09:19:51;101099.34;;;20.16;61.84
76637;BME280;65532;52.124;5.480;2023-07-16T09:22:19;101118.06;;;20.14;61.23
76637;BME280;65532;52.124;5.480;2023-07-16T09:24:47;101107.88;;;19.80;60.74
76637;BME280;65532;52.124;5.480;2023-07-16T09:27:14;101108.53;;;19.67;61.32
76637;BME280;65532;52.124;5.480;2023-07-16T09:29:41;101110.25;;;19.58;61.54
76637;BME280;65532;52.124;5.480;2023-07-16T09:32:08;101123.47;;;19.45;61.41
76637;BME280;65532;52.124;5.480;2023-07-16T09:34:34;101129.53;;;19.42;62.40
76637;BME280;65532;52.124;5.480;2023-07-16T09:37:02;101145.41;;;19.56;62.51
76637;BME280;65532;52.124;5.480;2023-07-16T09:39:43;101120.63;;;19.66;62.21
76637;BME280;65532;52.124;5.480;2023-07-16T09:42:13;101111.28;;;20.01;61.18
76637;BME280;65532;52.124;5.480;2023-07-16T09:44:40;101123.50;;;20.53;61.74
76637;BME280;65532;52.124;5.480;2023-07-16T09:47:08;101124.00;;;20.84;60.05
76637;BME280;65532;52.124;5.480;2023-07-16T09:49:34;101125.81;;;20.70;59.58
76637;BME280;65532;52.124;5.480;2023-07-16T09:52:02;101132.88;;;20.52;59.10
76637;BME280;65532;52.124;5.480;2023-07-16T09:54:32;101137.88;;;20.45;60.19
76637;BME280;65532;52.124;5.480;2023-07-16T09:57:00;101133.69;;;20.52;60.56
76637;BME280;65532;52.124;5.480;2023-07-16T09:59:30;101136.47;;;20.47;60.29
76637;BME280;65532;52.124;5.480;2023-07-16T10:01:58;101137.78;;;20.55;60.87
76637;BME280;65532;52.124;5.480;2023-07-16T10:04:25;101146.00;;;20.60;60.40
76637;BME280;65532;52.124;5.480;2023-07-16T10:06:53;101148.56;;;20.51;60.45
76637;BME280;65532;52.124;5.480;2023-07-16T10:09:56;101145.25;;;20.49;60.61
76637;BME280;65532;52.124;5.480;2023-07-16T10:12:25;101150.34;;;20.32;60.65
76637;BME280;65532;52.124;5.480;2023-07-16T10:14:54;101139.41;;;20.27;61.34
76637;BME280;65532;52.124;5.480;2023-07-16T10:17:25;101155.03;;;20.31;61.11
76637;BME280;65532;52.124;5.480;2023-07-16T10:20:10;101162.13;;;20.67;60.90
76637;BME280;65532;52.124;5.480;2023-07-16T10:22:46;101159.78;;;20.84;60.14
76637;BME280;65532;52.124;5.480;2023-07-16T10:27:46;101162.75;;;21.11;58.72
76637;BME280;65532;52.124;5.480;2023-07-16T10:30:13;101162.34;;;21.23;58.36
76637;BME280;65532;52.124;5.480;2023-07-16T10:32:40;101156.09;;;21.17;58.02
76637;BME280;65532;52.124;5.480;2023-07-16T10:35:08;101157.94;;;20.98;59.37
76637;BME280;65532;52.124;5.480;2023-07-16T10:37:36;101169.31;;;20.68;58.78
76637;BME280;65532;52.124;5.480;2023-07-16T10:40:03;101165.78;;;20.28;59.08
76637;BME280;65532;52.124;5.480;2023-07-16T10:42:31;101166.25;;;20.06;59.53
76637;BME280;65532;52.124;5.480;2023-07-16T10:45:00;101180.63;;;19.93;60.14
76637;BME280;65532;52.124;5.480;2023-07-16T10:47:31;101192.50;;;19.83;60.46
76637;BME280;65532;52.124;5.480;2023-07-16T10:49:59;101182.03;;;19.85;60.67
76637;BME280;65532;52.124;5.480;2023-07-16T10:52:26;101175.31;;;20.07;60.67
76637;BME280;65532;52.124;5.480;2023-07-16T10:54:53;101176.50;;;20.29;60.78
76637;BME280;65532;52.124;5.480;2023-07-16T10:57:21;101187.63;;;20.48;60.38
76637;BME280;65532;52.124;5.480;2023-07-16T10:59:50;101187.09;;;20.46;60.12
76637;BME280;65532;52.124;5.480;2023-07-16T11:02:18;101205.78;;;20.49;60.37
76637;BME280;65532;52.124;5.480;2023-07-16T11:04:46;101198.63;;;20.48;59.88
76637;BME280;65532;52.124;5.480;2023-07-16T11:07:13;101208.50;;;20.54;60.67
76637;BME280;65532;52.124;5.480;2023-07-16T11:09:47;101210.44;;;20.83;60.68
76637;BME280;65532;52.124;5.480;2023-07-16T11:12:16;101207.88;;;21.15;59.48
76637;BME280;65532;52.124;5.480;2023-07-16T11:14:45;101212.84;;;21.61;59.33
76637;BME280;65532;52.124;5.480;2023-07-16T11:17:12;101201.03;;;21.79;57.92
76637;BME280;65532;52.124;5.480;2023-07-16T11:19:40;101200.00;;;22.13;57.21
76637;BME280;65532;52.124;5.480;2023-07-16T11:22:07;101214.88;;;21.74;57.32
76637;BME280;65532;52.124;5.480;2023-07-16T11:24:45;101202.84;;;21.46;57.60
76637;BME280;65532;52.124;5.480;2023-07-16T11:27:14;101213.25;;;21.31;58.21
76637;BME280;65532;52.124;5.480;2023-07-16T11:32:11;101218.06;;;20.91;59.57
76637;BME280;65532;52.124;5.480;2023-07-16T11:34:51;101209.34;;;20.84;59.24
76637;BME280;65532;52.124;5.480;2023-07-16T11:37:18;101221.63;;;20.62;60.16
76637;BME280;65532;52.124;5.480;2023-07-16T11:39:47;101232.75;;;20.47;60.98
76637;BME280;65532;52.124;5.480;2023-07-16T11:42:20;101229.78;;;20.39;60.81
76637;BME280;65532;52.124;5.480;2023-07-16T11:44:49;101227.06;;;20.73;60.33
76637;BME280;65532;52.124;5.480;2023-07-16T11:47:16;101235.03;;;20.98;59.70
76637;BME280;65532;52.124;5.480;2023-07-16T11:49:43;101241.63;;;21.02;59.47
76637;BME280;65532;52.124;5.480;2023-07-16T11:52:09;101240.94;;;21.15;59.52
76637;BME280;65532;52.124;5.480;2023-07-16T11:54:36;101245.78;;;21.23;60.19
76637;BME280;65532;52.124;5.480;2023-07-16T11:57:03;101244.72;;;21.48;57.64
76637;BME280;65532;52.124;5.480;2023-07-16T11:59:30;101258.44;;;21.72;56.01
76637;BME280;65532;52.124;5.480;2023-07-16T12:01:56;101246.97;;;21.65;55.52
76637;BME280;65532;52.124;5.480;2023-07-16T12:04:23;101249.25;;;21.58;56.16
76637;BME280;65532;52.124;5.480;2023-07-16T12:06:49;101243.03;;;21.71;56.24
76637;BME280;65532;52.124;5.480;2023-07-16T12:09:16;101253.72;;;21.54;56.46
76637;BME280;65532;52.124;5.480;2023-07-16T12:11:43;101255.16;;;21.70;56.95
76637;BME280;65532;52.124;5.480;2023-07-16T12:14:09;101251.03;;;21.49;56.33
76637;BME280;65532;52.124;5.480;2023-07-16T12:16:36;101254.53;;;21.78;58.01
76637;BME280;65532;52.124;5.480;2023-07-16T12:19:03;101248.63;;;22.04;56.31
76637;BME280;65532;52.124;5.480;2023-07-16T12:21:29;101243.56;;;21.92;55.69
76637;BME280;65532;52.124;5.480;2023-07-16T12:23:56;101249.19;;;22.06;54.82
76637;BME280;65532;52.124;5.480;2023-07-16T12:26:22;101251.25;;;21.95;55.38
76637;BME280;65532;52.124;5.480;2023-07-16T12:28:49;101254.53;;;22.35;55.06
76637;BME280;65532;52.124;5.480;2023-07-16T12:31:16;101256.56;;;22.29;54.17
76637;BME280;65532;52.124;5.480;2023-07-16T12:33:47;101262.03;;;21.92;55.05
76637;BME280;65532;52.124;5.480;2023-07-16T12:36:14;101261.84;;;22.07;55.56
76637;BME280;65532;52.124;5.480;2023-07-16T12:38:41;101253.63;;;22.02;55.46
76637;BME280;65532;52.124;5.480;2023-07-16T12:41:08;101261.13;;;22.20;55.38
76637;BME280;65532;52.124;5.480;2023-07-16T12:43:34;101251.13;;;22.43;55.40
76637;BME280;65532;52.124;5.480;2023-07-16T12:46:03;101263.59;;;22.73;55.19
76637;BME280;65532;52.124;5.480;2023-07-16T12:48:31;101260.84;;;22.73;54.36
76637;BME280;65532;52.124;5.480;2023-07-16T12:50:58;101259.53;;;22.33;54.16
76637;BME280;65532;52.124;5.480;2023-07-16T12:53:25;101253.75;;;22.67;54.57
76637;BME280;65532;52.124;5.480;2023-07-16T12:55:53;101265.50;;;22.91;53.51
76637;BME280;65532;52.124;5.480;2023-07-16T12:58:19;101256.69;;;22.57;51.75
76637;BME280;65532;52.124;5.480;2023-07-16T13:00:46;101256.50;;;22.34;51.35
76637;BME280;65532;52.124;5.480;2023-07-16T13:03:12;101264.19;;;22.19;52.06
76637;BME280;65532;52.124;5.480;2023-07-16T13:05:43;101273.66;;;22.31;52.64